sensor_id;sensor_type;location;lat;lon;timestamp;pressure;altitude;pressure_sealevel;temperature;humidity
57827;BME280;43656;57.746;11.780;2022-09-02T00:01:37;102268.13;;;9.52;100.00
57827;BME280;43656;57.746;11.780;2022-09-02T00:04:38;102272.66;;;9.51;100.00
57827;BME280;43656;57.746;11.780;2022-09-02T00:06:56;102265.00;;;9.38;100.00
57827;BME280;43656;57.746;11.780;2022-09-02T00:09:23;102279.50;;;9.46;100.00
57827;BME280;43656;57.746;11.780;2022-09-02T00:11:51;102267.75;;;9.47;100.00
57827;BME280;43656;57.746;11.780;2022-09-02T00:14:30;102274.50;;;9.51;100.00
57827;BME280;43656;57.746;11.780;2022-09-02T00:16:56;102261.59;;;9.54;100.00
57827;BME280;43656;57.746;11.780;2022-09-02T00:19:25;102275.16;;;9.71;100.00
57827;BME280;43656;57.746;11.780;2022-09-02T00:21:53;102264.97;;;9.82;100.00
57827;BME280;43656;57.746;11.780;2022-09-02T00:24:19;102269.94;;;9.95;100.00
57827;BME280;43656;57.746;11.780;2022-09-02T00:26:45;102277.72;;;10.06;100.00
57827;BME280;43656;57.746;11.780;2022-09-02T00:29:11;102279.09;;;10.10;100.00
57827;BME280;43656;57.746;11.780;2022-09-02T00:31:39;102262.06;;;10.02;100.00
57827;BME280;43656;57.746;11.780;2022-09-02T00:34:05;102278.47;;;10.17;100.00
57827;BME280;43656;57.746;11.780;2022-09-02T00:36:32;102279.97;;;10.19;100.00
57827;BME280;43656;57.746;11.780;2022-09-02T00:38:57;102254.06;;;10.10;100.00
57827;BME280;43656;57.746;11.780;2022-09-02T00:41:26;102274.44;;;10.21;100.00
57827;BME280;43656;57.746;11.780;2022-09-02T00:43:58;102266.00;;;10.16;100.00
57827;BME280;43656;57.746;11.780;2022-09-02T00:46:26;102278.13;;;10.20;100.00
57827;BME280;43656;57.746;11.780;2022-09-02T00:51:40;102270.41;;;10.17;100.00
57827;BME280;43656;57.746;11.780;2022-09-02T00:54:06;102271.25;;;10.17;100.00
57827;BME280;43656;57.746;11.780;2022-09-02T00:56:32;102275.78;;;10.17;100.00
57827;BME280;43656;57.746;11.780;2022-09-02T00:59:00;102267.03;;;10.15;100.00
57827;BME280;43656;57.746;11.780;2022-09-02T01:01:26;102263.94;;;10.09;100.00
57827;BME280;43656;57.746;11.780;2022-09-02T01:03:52;102273.94;;;10.17;99.44
57827;BME280;43656;57.746;11.780;2022-09-02T01:06:23;102263.50;;;10.14;99.54
57827;BME280;43656;57.746;11.780;2022-09-02T01:08:56;102262.47;;;10.15;98.50
57827;BME280;43656;57.746;11.780;2022-09-02T01:11:23;102267.53;;;10.18;99.13
57827;BME280;43656;57.746;11.780;2022-09-02T01:13:50;102261.25;;;10.09;98.35
57827;BME280;43656;57.746;11.780;2022-09-02T01:16:23;102275.94;;;10.15;98.32
57827;BME280;43656;57.746;11.780;2022-09-02T01:18:52;102279.63;;;10.14;98.29
57827;BME280;43656;57.746;11.780;2022-09-02T01:21:20;102265.81;;;10.09;98.27
57827;BME280;43656;57.746;11.780;2022-09-02T01:23:47;102274.56;;;10.11;97.82
57827;BME280;43656;57.746;11.780;2022-09-02T01:26:13;102248.41;;;9.95;97.60
57827;BME280;43656;57.746;11.780;2022-09-02T01:28:39;102251.09;;;9.95;97.93
57827;BME280;43656;57.746;11.780;2022-09-02T01:31:04;102273.53;;;10.04;98.37
57827;BME280;43656;57.746;11.780;2022-09-02T01:33:30;102246.88;;;9.93;98.28
57827;BME280;43656;57.746;11.780;2022-09-02T01:35:55;102222.13;;;9.81;97.91
57827;BME280;43656;57.746;11.780;2022-09-02T01:38:24;102266.75;;;10.00;98.35
57827;BME280;43656;57.746;11.780;2022-09-02T01:40:50;102267.41;;;9.94;98.13
57827;BME280;43656;57.746;11.780;2022-09-02T01:43:20;102262.81;;;9.86;98.41
57827;BME280;43656;57.746;11.780;2022-09-02T01:45:47;102255.16;;;9.73;99.21
57827;BME280;43656;57.746;11.780;2022-09-02T01:48:14;102259.66;;;9.64;99.10
57827;BME280;43656;57.746;11.780;2022-09-02T01:50:43;102251.69;;;9.55;99.31
57827;BME280;43656;57.746;11.780;2022-09-02T01:53:09;102226.56;;;9.38;99.06
57827;BME280;43656;57.746;11.780;2022-09-02T01:55:34;102247.88;;;9.39;100.00
57827;BME280;43656;57.746;11.780;2022-09-02T01:58:00;102258.63;;;9.39;100.00
57827;BME280;43656;57.746;11.780;2022-09-02T02:00:27;102231.31;;;9.26;100.00
57827;BME280;43656;57.746;11.780;2022-09-02T02:02:52;102240.91;;;9.29;99.94
57827;BME280;43656;57.746;11.780;2022-09-02T02:05:18;102241.66;;;9.39;99.85
57827;BME280;43656;57.746;11.780;2022-09-02T02:07:44;102248.63;;;9.50;100.00
57827;BME280;43656;57.746;11.780;2022-09-02T02:10:11;102247.66;;;9.51;99.97
57827;BME280;43656;57.746;11.780;2022-09-02T02:12:38;102253.53;;;9.54;100.00
57827;BME280;43656;57.746;11.780;2022-09-02T02:15:07;102217.78;;;9.36;99.62
57827;BME280;43656;57.746;11.780;2022-09-02T02:17:34;102248.00;;;9.56;99.67
57827;BME280;43656;57.746;11.780;2022-09-02T02:19:59;102253.38;;;9.56;99.63
57827;BME280;43656;57.746;11.780;2022-09-02T02:22:25;102255.06;;;9.57;99.83
57827;BME280;43656;57.746;11.780;2022-09-02T02:24:52;102226.69;;;9.36;99.84
57827;BME280;43656;57.746;11.780;2022-09-02T02:27:17;102240.50;;;9.41;99.39
57827;BME280;43656;57.746;11.780;2022-09-02T02:29:43;102246.09;;;9.48;100.00
57827;BME280;43656;57.746;11.780;2022-09-02T02:32:08;102218.59;;;9.28;99.87
57827;BME280;43656;57.746;11.780;2022-09-02T02:34:34;102236.47;;;9.37;99.23
57827;BME280;43656;57.746;11.780;2022-09-02T02:37:00;102239.69;;;9.41;99.35
57827;BME280;43656;57.746;11.780;2022-09-02T02:39:26;102261.06;;;9.51;99.56
57827;BME280;43656;57.746;11.780;2022-09-02T02:41:51;102255.72;;;9.51;99.79
57827;BME280;43656;57.746;11.780;2022-09-02T02:44:17;102255.00;;;9.49;99.57
57827;BME280;43656;57.746;11.780;2022-09-02T02:46:42;102243.03;;;9.43;99.54
57827;BME280;43656;57.746;11.780;2022-09-02T02:49:08;102260.06;;;9.52;99.49
57827;BME280;43656;57.746;11.780;2022-09-02T02:51:34;102256.31;;;9.45;99.84
57827;BME280;43656;57.746;11.780;2022-09-02T02:54:00;102267.75;;;9.47;99.76
57827;BME280;43656;57.746;11.780;2022-09-02T02:56:26;102265.38;;;9.44;99.58
57827;BME280;43656;57.746;11.780;2022-09-02T02:58:52;102266.84;;;9.38;100.00
57827;BME280;43656;57.746;11.780;2022-09-02T03:01:18;102267.16;;;9.35;100.00
57827;BME280;43656;57.746;11.780;2022-09-02T03:03:43;102266.47;;;9.33;100.00
57827;BME280;43656;57.746;11.780;2022-09-02T03:06:10;102232.78;;;9.03;100.00
57827;BME280;43656;57.746;11.780;2022-09-02T03:08:35;102267.25;;;9.25;100.00
57827;BME280;43656;57.746;11.780;2022-09-02T03:11:02;102268.56;;;9.21;100.00
57827;BME280;43656;57.746;11.780;2022-09-02T03:13:28;102257.34;;;9.08;100.00
57827;BME280;43656;57.746;11.780;2022-09-02T03:15:53;102262.78;;;9.16;100.00
57827;BME280;43656;57.746;11.780;2022-09-02T03:18:20;102236.78;;;8.99;100.00
57827;BME280;43656;57.746;11.780;2022-09-02T03:20:45;102265.78;;;9.13;100.00
57827;BME280;43656;57.746;11.780;2022-09-02T03:23:11;102259.50;;;9.04;100.00
57827;BME280;43656;57.746;11.780;2022-09-02T03:25:40;102234.19;;;8.89;100.00
57827;BME280;43656;57.746;11.780;2022-09-02T03:28:06;102267.25;;;9.07;100.00
57827;BME280;43656;57.746;11.780;2022-09-02T03:30:32;102272.75;;;9.06;100.00
57827;BME280;43656;57.746;11.780;2022-09-02T03:32:59;102275.09;;;9.01;100.00
57827;BME280;43656;57.746;11.780;2022-09-02T03:35:27;102268.59;;;8.93;100.00
57827;BME280;43656;57.746;11.780;2022-09-02T03:37:53;102263.06;;;8.77;100.00
57827;BME280;43656;57.746;11.780;2022-09-02T03:40:24;102277.06;;;8.81;100.00
57827;BME280;43656;57.746;11.780;2022-09-02T03:42:50;102273.44;;;8.72;100.00
57827;BME280;43656;57.746;11.780;2022-09-02T03:45:16;102276.97;;;8.73;100.00
57827;BME280;43656;57.746;11.780;2022-09-02T03:47:44;102276.13;;;8.72;100.00
57827;BME280;43656;57.746;11.780;2022-09-02T03:50:36;102283.69;;;8.59;100.00
57827;BME280;43656;57.746;11.780;2022-09-02T03:53:05;102272.53;;;8.54;100.00
57827;BME280;43656;57.746;11.780;2022-09-02T03:55:31;102281.59;;;8.53;100.00
57827;BME280;43656;57.746;11.780;2022-09-02T03:57:57;102280.88;;;8.51;100.00
57827;BME280;43656;57.746;11.780;2022-09-02T04:00:24;102277.91;;;8.54;100.00
57827;BME280;43656;57.746;11.780;2022-09-02T04:02:53;102274.84;;;8.49;100.00
57827;BME280;43656;57.746;11.780;2022-09-02T04:05:20;102278.06;;;8.52;100.00
57827;BME280;43656;57.746;11.780;2022-09-02T04:07:46;102267.16;;;8.54;100.00
57827;BME280;43656;57.746;11.780;2022-09-02T04:10:12;102277.78;;;8.55;100.00
57827;BME280;43656;57.746;11.780;2022-09-02T04:12:38;102238.59;;;8.35;100.00
57827;BME280;43656;57.746;11.780;2022-09-02T04:15:05;102267.88;;;8.56;100.00
57827;BME280;43656;57.746;11.780;2022-09-02T04:17:34;102251.00;;;8.45;100.00
57827;BME280;43656;57.746;11.780;2022-09-02T04:20:01;102260.97;;;8.53;100.00
57827;BME280;43656;57.746;11.780;2022-09-02T04:22:26;102271.19;;;8.67;100.00
57827;BME280;43656;57.746;11.780;2022-09-02T04:24:52;102279.88;;;8.79;100.00
57827;BME280;43656;57.746;11.780;2022-09-02T04:27:17;102268.25;;;8.88;100.00
57827;BME280;43656;57.746;11.780;2022-09-02T04:29:42;102277.06;;;9.34;100.00
57827;BME280;43656;57.746;11.780;2022-09-02T04:32:08;102276.50;;;9.49;100.00
57827;BME280;43656;57.746;11.780;2022-09-02T04:34:33;102275.78;;;9.91;100.00
57827;BME280;43656;57.746;11.780;2022-09-02T04:36:58;102266.50;;;10.45;98.21
57827;BME280;43656;57.746;11.780;2022-09-02T04:39:24;102280.13;;;11.02;94.75
57827;BME280;43656;57.746;11.780;2022-09-02T04:41:49;102279.50;;;11.49;92.70
57827;BME280;43656;57.746;11.780;2022-09-02T04:44:15;102267.50;;;11.85;90.29
57827;BME280;43656;57.746;11.780;2022-09-02T04:46:40;102238.81;;;12.00;87.84
57827;BME280;43656;57.746;11.780;2022-09-02T04:49:05;102276.84;;;12.61;86.32
57827;BME280;43656;57.746;11.780;2022-09-02T04:51:31;102268.56;;;12.93;84.31
57827;BME280;43656;57.746;11.780;2022-09-02T04:53:56;102272.56;;;13.29;82.30
57827;BME280;43656;57.746;11.780;2022-09-02T04:56:26;102261.63;;;13.45;80.98
57827;BME280;43656;57.746;11.780;2022-09-02T04:58:52;102265.41;;;13.74;79.46
57827;BME280;43656;57.746;11.780;2022-09-02T05:01:23;102273.91;;;14.00;77.93
57827;BME280;43656;57.746;11.780;2022-09-02T05:03:50;102270.38;;;14.15;76.77
57827;BME280;43656;57.746;11.780;2022-09-02T05:06:18;102272.63;;;14.41;75.63
57827;BME280;43656;57.746;11.780;2022-09-02T05:08:45;102261.19;;;14.60;73.65
57827;BME280;43656;57.746;11.780;2022-09-02T05:11:17;102278.19;;;14.69;73.48
57827;BME280;43656;57.746;11.780;2022-09-02T05:13:46;102257.84;;;14.58;73.20
57827;BME280;43656;57.746;11.780;2022-09-02T05:16:20;102282.75;;;15.04;71.13
57827;BME280;43656;57.746;11.780;2022-09-02T05:18:47;102284.56;;;15.40;69.02
57827;BME280;43656;57.746;11.780;2022-09-02T05:21:12;102284.50;;;15.77;67.40
57827;BME280;43656;57.746;11.780;2022-09-02T05:23:38;102261.88;;;15.97;65.93
57827;BME280;43656;57.746;11.780;2022-09-02T05:26:05;102285.22;;;16.27;64.98
57827;BME280;43656;57.746;11.780;2022-09-02T05:28:30;102284.63;;;16.31;64.07
57827;BME280;43656;57.746;11.780;2022-09-02T05:31:02;102290.53;;;16.48;63.51
57827;BME280;43656;57.746;11.780;2022-09-02T05:33:29;102287.72;;;16.70;62.81
57827;BME280;43656;57.746;11.780;2022-09-02T05:35:55;102262.72;;;16.39;62.59
57827;BME280;43656;57.746;11.780;2022-09-02T05:38:21;102265.97;;;14.94;69.88
57827;BME280;43656;57.746;11.780;2022-09-02T05:40:46;102286.91;;;14.05;76.40
57827;BME280;43656;57.746;11.780;2022-09-02T05:43:11;102282.00;;;13.33;81.43
57827;BME280;43656;57.746;11.780;2022-09-02T05:45:37;102283.88;;;13.01;84.53
57827;BME280;43656;57.746;11.780;2022-09-02T05:48:03;102284.00;;;12.85;86.34
57827;BME280;43656;57.746;11.780;2022-09-02T05:50:48;102280.97;;;12.80;87.50
57827;BME280;43656;57.746;11.780;2022-09-02T05:53:14;102271.97;;;12.87;87.54
57827;BME280;43656;57.746;11.780;2022-09-02T05:55:39;102287.59;;;13.00;87.24
57827;BME280;43656;57.746;11.780;2022-09-02T05:58:05;102266.28;;;12.82;87.62
57827;BME280;43656;57.746;11.780;2022-09-02T06:00:30;102272.09;;;13.17;86.70
57827;BME280;43656;57.746;11.780;2022-09-02T06:02:55;102266.44;;;13.35;86.08
57827;BME280;43656;57.746;11.780;2022-09-02T06:05:21;102282.69;;;13.50;85.86
57827;BME280;43656;57.746;11.780;2022-09-02T06:07:46;102285.84;;;13.38;85.25
57827;BME280;43656;57.746;11.780;2022-09-02T06:10:11;102281.50;;;13.52;84.84
57827;BME280;43656;57.746;11.780;2022-09-02T06:12:38;102270.22;;;13.49;84.26
57827;BME280;43656;57.746;11.780;2022-09-02T06:15:03;102244.72;;;13.43;83.05
57827;BME280;43656;57.746;11.780;2022-09-02T06:17:29;102286.91;;;13.52;83.10
57827;BME280;43656;57.746;11.780;2022-09-02T06:19:54;102293.56;;;13.65;82.62
57827;BME280;43656;57.746;11.780;2022-09-02T06:22:20;102294.06;;;13.83;82.10
57827;BME280;43656;57.746;11.780;2022-09-02T06:24:45;102287.91;;;13.89;81.57
57827;BME280;43656;57.746;11.780;2022-09-02T06:27:10;102291.81;;;13.86;81.10
57827;BME280;43656;57.746;11.780;2022-09-02T06:29:36;102286.81;;;13.98;80.82
57827;BME280;43656;57.746;11.780;2022-09-02T06:32:01;102292.03;;;14.29;79.90
57827;BME280;43656;57.746;11.780;2022-09-02T06:34:33;102276.25;;;14.33;79.01
57827;BME280;43656;57.746;11.780;2022-09-02T06:36:59;102297.44;;;14.44;78.94
57827;BME280;43656;57.746;11.780;2022-09-02T06:39:24;102307.06;;;14.62;78.38
57827;BME280;43656;57.746;11.780;2022-09-02T06:41:50;102291.66;;;14.47;78.80
57827;BME280;43656;57.746;11.780;2022-09-02T06:44:17;102293.16;;;14.65;78.30
57827;BME280;43656;57.746;11.780;2022-09-02T06:46:47;102301.81;;;14.75;78.46
57827;BME280;43656;57.746;11.780;2022-09-02T06:49:14;102296.19;;;14.76;78.70
57827;BME280;43656;57.746;11.780;2022-09-02T06:51:43;102301.53;;;14.85;77.79
57827;BME280;43656;57.746;11.780;2022-09-02T06:54:16;102318.75;;;14.98;78.02
57827;BME280;43656;57.746;11.780;2022-09-02T06:56:43;102314.72;;;15.09;78.53
57827;BME280;43656;57.746;11.780;2022-09-02T06:59:09;102274.50;;;14.91;77.10
57827;BME280;43656;57.746;11.780;2022-09-02T07:01:35;102311.16;;;15.09;76.11
57827;BME280;43656;57.746;11.780;2022-09-02T07:04:02;102316.22;;;15.55;74.61
57827;BME280;43656;57.746;11.780;2022-09-02T07:06:47;102313.34;;;15.63;72.59
57827;BME280;43656;57.746;11.780;2022-09-02T07:09:16;102309.25;;;15.67;72.37
57827;BME280;43656;57.746;11.780;2022-09-02T07:11:43;102309.31;;;15.73;71.63
57827;BME280;43656;57.746;11.780;2022-09-02T07:14:13;102308.03;;;15.97;71.25
57827;BME280;43656;57.746;11.780;2022-09-02T07:16:43;102297.63;;;16.08;68.99
57827;BME280;43656;57.746;11.780;2022-09-02T07:19:09;102302.97;;;16.23;69.28
57827;BME280;43656;57.746;11.780;2022-09-02T07:21:36;102260.25;;;16.03;68.76
57827;BME280;43656;57.746;11.780;2022-09-02T07:24:02;102287.03;;;16.13;67.19
57827;BME280;43656;57.746;11.780;2022-09-02T07:26:28;102301.28;;;16.21;66.09
57827;BME280;43656;57.746;11.780;2022-09-02T07:28:54;102302.00;;;16.37;65.82
57827;BME280;43656;57.746;11.780;2022-09-02T07:31:20;102305.22;;;16.54;64.56
57827;BME280;43656;57.746;11.780;2022-09-02T07:33:46;102300.88;;;16.66;64.03
57827;BME280;43656;57.746;11.780;2022-09-02T07:36:13;102302.97;;;16.71;61.93
57827;BME280;43656;57.746;11.780;2022-09-02T07:38:39;102307.41;;;16.78;61.27
57827;BME280;43656;57.746;11.780;2022-09-02T07:41:08;102293.00;;;16.84;60.20
57827;BME280;43656;57.746;11.780;2022-09-02T07:43:34;102307.81;;;16.75;59.45
57827;BME280;43656;57.746;11.780;2022-09-02T07:46:00;102302.91;;;17.05;59.44
57827;BME280;43656;57.746;11.780;2022-09-02T07:48:26;102303.38;;;17.22;59.03
57827;BME280;43656;57.746;11.780;2022-09-02T07:50:52;102305.47;;;17.33;58.25
57827;BME280;43656;57.746;11.780;2022-09-02T07:53:19;102307.38;;;17.59;58.37
57827;BME280;43656;57.746;11.780;2022-09-02T07:55:45;102309.47;;;17.64;57.64
57827;BME280;43656;57.746;11.780;2022-09-02T07:58:12;102306.31;;;17.41;56.13
57827;BME280;43656;57.746;11.780;2022-09-02T08:00:38;102311.34;;;17.44;55.66
57827;BME280;43656;57.746;11.780;2022-09-02T08:03:05;102303.81;;;17.52;55.88
57827;BME280;43656;57.746;11.780;2022-09-02T08:05:32;102309.47;;;17.64;56.25
57827;BME280;43656;57.746;11.780;2022-09-02T08:07:58;102291.22;;;17.58;54.98
57827;BME280;43656;57.746;11.780;2022-09-02T08:10:25;102301.09;;;17.72;55.10
57827;BME280;43656;57.746;11.780;2022-09-02T08:12:55;102299.88;;;17.81;54.81
57827;BME280;43656;57.746;11.780;2022-09-02T08:15:22;102303.81;;;18.05;54.45
57827;BME280;43656;57.746;11.780;2022-09-02T08:17:47;102312.78;;;18.19;53.31
57827;BME280;43656;57.746;11.780;2022-09-02T08:20:14;102301.47;;;18.22;52.24
57827;BME280;43656;57.746;11.780;2022-09-02T08:22:41;102301.66;;;18.27;51.46
57827;BME280;43656;57.746;11.780;2022-09-02T08:25:07;102302.91;;;18.38;51.40
57827;BME280;43656;57.746;11.780;2022-09-02T08:27:33;102298.88;;;18.41;51.11
57827;BME280;43656;57.746;11.780;2022-09-02T08:29:59;102305.34;;;18.53;50.45
57827;BME280;43656;57.746;11.780;2022-09-02T08:32:26;102287.00;;;18.28;50.18
57827;BME280;43656;57.746;11.780;2022-09-02T08:34:51;102301.19;;;18.37;50.23
57827;BME280;43656;57.746;11.780;2022-09-02T08:37:16;102300.41;;;18.23;49.60
57827;BME280;43656;57.746;11.780;2022-09-02T08:39:43;102313.31;;;18.54;49.87
57827;BME280;43656;57.746;11.780;2022-09-02T08:43:03;102302.78;;;18.65;49.56
57827;BME280;43656;57.746;11.780;2022-09-02T08:45:13;102302.56;;;18.73;48.38
57827;BME280;43656;57.746;11.780;2022-09-02T08:47:44;102313.78;;;18.96;49.50
57827;BME280;43656;57.746;11.780;2022-09-02T08:50:15;102305.44;;;18.91;48.10
57827;BME280;43656;57.746;11.780;2022-09-02T08:52:54;102283.22;;;18.88;47.72
57827;BME280;43656;57.746;11.780;2022-09-02T08:55:28;102303.81;;;19.15;47.64
57827;BME280;43656;57.746;11.780;2022-09-02T08:57:56;102296.28;;;19.11;47.33
57827;BME280;43656;57.746;11.780;2022-09-02T09:00:22;102262.28;;;18.75;47.39
57827;BME280;43656;57.746;11.780;2022-09-02T09:05:48;102314.88;;;18.89;46.81
57827;BME280;43656;57.746;11.780;2022-09-02T09:11:35;102303.56;;;18.85;46.95
57827;BME280;43656;57.746;11.780;2022-09-02T09:17:01;102304.78;;;19.28;47.27
57827;BME280;43656;57.746;11.780;2022-09-02T09:21:56;102303.00;;;19.08;46.86
57827;BME280;43656;57.746;11.780;2022-09-02T09:24:42;102298.19;;;18.72;44.57
57827;BME280;43656;57.746;11.780;2022-09-02T09:27:11;102287.50;;;18.57;45.83
57827;BME280;43656;57.746;11.780;2022-09-02T09:29:37;102308.34;;;18.90;46.19
57827;BME280;43656;57.746;11.780;2022-09-02T09:32:04;102289.97;;;18.78;46.82
57827;BME280;43656;57.746;11.780;2022-09-02T09:37:29;102300.09;;;19.03;46.49
57827;BME280;43656;57.746;11.780;2022-09-02T09:39:55;102291.56;;;19.24;46.65
57827;BME280;43656;57.746;11.780;2022-09-02T09:42:33;102300.84;;;19.48;45.95
57827;BME280;43656;57.746;11.780;2022-09-02T09:44:59;102290.78;;;19.17;45.67
57827;BME280;43656;57.746;11.780;2022-09-02T09:47:39;102293.28;;;19.51;46.18
57827;BME280;43656;57.746;11.780;2022-09-02T09:50:14;102288.13;;;19.36;46.35
57827;BME280;43656;57.746;11.780;2022-09-02T09:52:40;102282.81;;;19.16;46.20
57827;BME280;43656;57.746;11.780;2022-09-02T09:55:16;102299.13;;;19.22;46.67
57827;BME280;43656;57.746;11.780;2022-09-02T09:57:44;102279.00;;;19.17;46.98
57827;BME280;43656;57.746;11.780;2022-09-02T10:02:51;102288.66;;;19.19;46.76
57827;BME280;43656;57.746;11.780;2022-09-02T10:07:57;102291.38;;;19.19;45.78
57827;BME280;43656;57.746;11.780;2022-09-02T10:10:24;102258.22;;;18.91;46.08
57827;BME280;43656;57.746;11.780;2022-09-02T10:12:52;102263.59;;;19.04;46.40
57827;BME280;43656;57.746;11.780;2022-09-02T10:15:30;102285.94;;;19.19;45.34
57827;BME280;43656;57.746;11.780;2022-09-02T10:18:43;102286.34;;;19.48;45.55
57827;BME280;43656;57.746;11.780;2022-09-02T10:24:02;102276.59;;;19.59;45.88
57827;BME280;43656;57.746;11.780;2022-09-02T10:26:37;102287.44;;;19.47;44.18
57827;BME280;43656;57.746;11.780;2022-09-02T10:29:40;102280.91;;;19.48;44.20
57827;BME280;43656;57.746;11.780;2022-09-02T10:46:06;102271.88;;;19.73;45.07
57827;BME280;43656;57.746;11.780;2022-09-02T10:48:46;102278.16;;;19.73;44.77
57827;BME280;43656;57.746;11.780;2022-09-02T10:54:26;102279.66;;;20.12;44.10
57827;BME280;43656;57.746;11.780;2022-09-02T10:57:45;102271.47;;;19.94;43.79
57827;BME280;43656;57.746;11.780;2022-09-02T11:00:11;102258.72;;;19.88;44.88
57827;BME280;43656;57.746;11.780;2022-09-02T11:05:28;102260.72;;;20.17;44.90
57827;BME280;43656;57.746;11.780;2022-09-02T11:08:35;102263.44;;;20.17;44.77
57827;BME280;43656;57.746;11.780;2022-09-02T11:11:00;102259.63;;;20.37;44.65
57827;BME280;43656;57.746;11.780;2022-09-02T11:13:57;102274.97;;;20.38;43.42
57827;BME280;43656;57.746;11.780;2022-09-02T11:16:36;102266.09;;;20.24;43.46
57827;BME280;43656;57.746;11.780;2022-09-02T11:24:54;102252.94;;;20.33;43.11
57827;BME280;43656;57.746;11.780;2022-09-02T11:27:46;102262.22;;;20.32;42.45
57827;BME280;43656;57.746;11.780;2022-09-02T11:30:17;102260.53;;;20.68;43.77
57827;BME280;43656;57.746;11.780;2022-09-02T11:32:51;102255.16;;;20.91;42.96
57827;BME280;43656;57.746;11.780;2022-09-02T11:35:23;102258.88;;;21.08;43.22
57827;BME280;43656;57.746;11.780;2022-09-02T11:43:20;102258.97;;;20.60;42.00
57827;BME280;43656;57.746;11.780;2022-09-02T11:46:40;102245.66;;;20.63;42.75
57827;BME280;43656;57.746;11.780;2022-09-02T11:54:18;102245.06;;;20.43;42.08
57827;BME280;43656;57.746;11.780;2022-09-02T11:56:48;102242.63;;;20.83;42.35
57827;BME280;43656;57.746;11.780;2022-09-02T12:13:37;102240.75;;;20.54;41.53
57827;BME280;43656;57.746;11.780;2022-09-02T12:18:44;102236.91;;;20.73;41.15
57827;BME280;43656;57.746;11.780;2022-09-02T12:21:16;102229.72;;;21.02;41.56
57827;BME280;43656;57.746;11.780;2022-09-02T12:31:45;102217.03;;;21.31;40.63
57827;BME280;43656;57.746;11.780;2022-09-02T12:37:04;102212.56;;;21.37;40.16
57827;BME280;43656;57.746;11.780;2022-09-02T12:42:23;102220.66;;;21.02;39.42
57827;BME280;43656;57.746;11.780;2022-09-02T12:45:29;102217.78;;;20.85;40.48
57827;BME280;43656;57.746;11.780;2022-09-02T12:48:06;102216.38;;;20.94;41.33
57827;BME280;43656;57.746;11.780;2022-09-02T12:55:53;102214.84;;;20.98;40.13
57827;BME280;43656;57.746;11.780;2022-09-02T12:58:21;102214.38;;;21.01;40.01
57827;BME280;43656;57.746;11.780;2022-09-02T13:22:02;102210.66;;;20.54;41.15
57827;BME280;43656;57.746;11.780;2022-09-02T13:25:22;102178.06;;;20.52;40.48
57827;BME280;43656;57.746;11.780;2022-09-02T13:30:29;102193.34;;;21.25;40.09
57827;BME280;43656;57.746;11.780;2022-09-02T13:33:07;102187.63;;;21.27;40.07
57827;BME280;43656;57.746;11.780;2022-09-02T13:35:37;102177.78;;;21.49;40.45
57827;BME280;43656;57.746;11.780;2022-09-02T13:38:03;102188.75;;;21.49;40.30
57827;BME280;43656;57.746;11.780;2022-09-02T13:40:33;102196.34;;;21.71;40.40
57827;BME280;43656;57.746;11.780;2022-09-02T13:43:25;102175.94;;;21.90;40.08
57827;BME280;43656;57.746;11.780;2022-09-02T13:45:52;102183.16;;;22.08;39.08
57827;BME280;43656;57.746;11.780;2022-09-02T13:48:30;102184.38;;;22.00;39.81
57827;BME280;43656;57.746;11.780;2022-09-02T13:50:59;102173.69;;;21.87;40.38
57827;BME280;43656;57.746;11.780;2022-09-02T13:53:36;102175.47;;;21.81;40.29
57827;BME280;43656;57.746;11.780;2022-09-02T13:56:05;102166.94;;;21.54;39.98
57827;BME280;43656;57.746;11.780;2022-09-02T13:58:52;102167.88;;;21.72;39.91
57827;BME280;43656;57.746;11.780;2022-09-02T14:01:29;102171.16;;;21.97;40.19
57827;BME280;43656;57.746;11.780;2022-09-02T14:03:57;102169.38;;;21.91;39.15
57827;BME280;43656;57.746;11.780;2022-09-02T14:06:27;102166.97;;;22.07;38.58
57827;BME280;43656;57.746;11.780;2022-09-02T14:08:59;102168.88;;;22.18;39.03
57827;BME280;43656;57.746;11.780;2022-09-02T14:11:26;102166.56;;;22.15;39.79
57827;BME280;43656;57.746;11.780;2022-09-02T14:13:52;102156.97;;;22.00;39.69
57827;BME280;43656;57.746;11.780;2022-09-02T14:16:30;102171.63;;;22.06;40.13
57827;BME280;43656;57.746;11.780;2022-09-02T14:21:35;102168.97;;;22.23;39.80
57827;BME280;43656;57.746;11.780;2022-09-02T14:24:03;102163.25;;;22.13;40.33
57827;BME280;43656;57.746;11.780;2022-09-02T14:28:58;102156.84;;;22.19;39.81
57827;BME280;43656;57.746;11.780;2022-09-02T14:31:27;102156.25;;;22.17;40.21
57827;BME280;43656;57.746;11.780;2022-09-02T14:33:55;102139.09;;;21.98;40.10
57827;BME280;43656;57.746;11.780;2022-09-02T14:38:54;102153.34;;;22.23;40.25
57827;BME280;43656;57.746;11.780;2022-09-02T14:41:27;102133.03;;;22.36;39.31
57827;BME280;43656;57.746;11.780;2022-09-02T14:43:57;102143.88;;;22.60;39.62
57827;BME280;43656;57.746;11.780;2022-09-02T14:46:29;102145.06;;;22.81;39.40
57827;BME280;43656;57.746;11.780;2022-09-02T14:49:02;102144.72;;;22.77;38.69
57827;BME280;43656;57.746;11.780;2022-09-02T14:51:38;102131.44;;;22.69;39.04
57827;BME280;43656;57.746;11.780;2022-09-02T14:54:05;102149.88;;;22.73;38.79
57827;BME280;43656;57.746;11.780;2022-09-02T14:56:52;102146.59;;;22.88;39.57
57827;BME280;43656;57.746;11.780;2022-09-02T14:59:18;102155.31;;;22.85;41.49
57827;BME280;43656;57.746;11.780;2022-09-02T15:01:49;102162.66;;;22.68;41.29